createdAt,value
2023-04-09T00:00:14.566Z,102107.91
2023-04-09T00:02:45.641Z,102115.13
2023-04-09T00:05:14.126Z,102117.66
2023-04-09T00:07:43.892Z,102115.69
2023-04-09T00:10:12.528Z,102125.81
2023-04-09T00:12:41.744Z,102114.53
2023-04-09T00:15:20.652Z,102110.34
2023-04-09T00:17:56.592Z,102111.66
2023-04-09T00:20:24.883Z,102113.84
2023-04-09T00:22:52.853Z,102107.69
2023-04-09T00:25:21.096Z,102111.97
2023-04-09T00:27:50.367Z,102113.00
2023-04-09T00:30:18.408Z,102106.13
2023-04-09T00:33:05.241Z,102109.50
2023-04-09T00:35:33.196Z,102112.13
2023-04-09T00:38:01.111Z,102102.94
2023-04-09T00:40:29.295Z,102112.00
2023-04-09T00:42:58.545Z,102116.91
2023-04-09T00:45:26.535Z,102118.41
2023-04-09T00:47:55.545Z,102116.97
2023-04-09T00:50:23.612Z,102115.25
2023-04-09T00:52:51.969Z,102111.81
2023-04-09T00:55:21.216Z,102111.75
2023-04-09T00:57:49.185Z,102110.38
2023-04-09T01:00:18.549Z,102109.78
2023-04-09T01:02:47.190Z,102108.66
2023-04-09T01:05:16.620Z,102108.81
2023-04-09T01:08:00.996Z,102112.28
2023-04-09T01:10:36.835Z,102101.75
2023-04-09T01:13:09.642Z,102111.63
2023-04-09T01:15:45.124Z,102114.44
2023-04-09T01:18:20.193Z,102113.53
2023-04-09T01:20:52.990Z,102110.38
2023-04-09T01:23:33.257Z,102107.00
2023-04-09T01:26:08.170Z,102110.53
2023-04-09T01:28:52.893Z,102109.75
2023-04-09T01:31:26.258Z,102112.47
2023-04-09T01:33:54.687Z,102109.84
2023-04-09T01:36:24.088Z,102111.47
2023-04-09T01:38:56.973Z,102108.84
2023-04-09T01:41:26.020Z,102121.31
2023-04-09T01:43:56.543Z,102118.72
2023-04-09T01:46:27.146Z,102118.63
2023-04-09T01:48:56.872Z,102117.91
2023-04-09T01:51:26.499Z,102108.50
2023-04-09T01:53:54.625Z,102113.81
2023-04-09T01:56:22.526Z,102115.53
2023-04-09T01:58:50.834Z,102114.66
2023-04-09T02:01:25.455Z,102122.16
2023-04-09T02:03:57.916Z,102123.78
2023-04-09T02:06:32.845Z,102128.59
2023-04-09T02:09:03.989Z,102123.34
2023-04-09T02:11:34.619Z,102122.16
2023-04-09T02:14:04.734Z,102127.75
2023-04-09T02:16:34.957Z,102123.53
2023-04-09T02:19:03.069Z,102128.59
2023-04-09T02:21:31.697Z,102120.84
2023-04-09T02:23:59.657Z,102120.78
2023-04-09T02:26:27.649Z,102124.53
2023-04-09T02:28:55.568Z,102128.16
2023-04-09T02:31:23.513Z,102122.22
2023-04-09T02:33:54.047Z,102119.75
2023-04-09T02:36:22.020Z,102121.47
2023-04-09T02:38:49.991Z,102118.03
2023-04-09T02:41:17.991Z,102113.56
2023-04-09T02:43:45.863Z,102116.13
2023-04-09T02:46:13.784Z,102124.88
2023-04-09T02:48:41.694Z,102125.84
2023-04-09T02:51:10.949Z,102122.41
2023-04-09T02:53:40.638Z,102116.47
2023-04-09T02:56:08.669Z,102118.88
2023-04-09T02:58:36.570Z,102121.88
2023-04-09T03:01:04.582Z,102122.78
2023-04-09T03:03:32.717Z,102118.72
2023-04-09T03:06:00.694Z,102123.31
2023-04-09T03:08:29.946Z,102115.56
2023-04-09T03:10:57.871Z,102113.47
2023-04-09T03:13:25.786Z,102115.19
2023-04-09T03:15:54.489Z,102113.56
2023-04-09T03:18:22.346Z,102109.28
2023-04-09T03:20:50.348Z,102110.34
2023-04-09T03:23:18.196Z,102110.03
2023-04-09T03:25:49.749Z,102104.88
2023-04-09T03:28:18.999Z,102105.94
2023-04-09T03:30:51.227Z,102098.09
2023-04-09T03:33:20.482Z,102096.41
2023-04-09T03:35:56.572Z,102099.28
2023-04-09T03:38:34.254Z,102097.63
2023-04-09T03:41:08.591Z,102104.03
2023-04-09T03:43:36.512Z,102097.28
2023-04-09T03:46:12.916Z,102103.75
2023-04-09T03:48:41.733Z,102102.34
2023-04-09T03:51:13.184Z,102106.38
2023-04-09T03:53:43.069Z,102111.38
2023-04-09T03:56:12.358Z,102105.53
2023-04-09T03:58:40.421Z,102104.53
2023-04-09T04:01:09.760Z,102110.97
2023-04-09T04:03:42.614Z,102109.31
2023-04-09T04:06:22.075Z,102108.75
2023-04-09T04:08:57.737Z,102106.38
2023-04-09T04:11:36.353Z,102103.50
2023-04-09T04:14:04.594Z,102109.13
2023-04-09T04:16:33.037Z,102111.84
2023-04-09T04:19:03.180Z,102114.59
2023-04-09T04:21:33.406Z,102118.56
2023-04-09T04:24:03.161Z,102123.59
2023-04-09T04:26:31.528Z,102120.56
2023-04-09T04:29:00.868Z,102128.84
2023-04-09T04:31:54.857Z,102133.28
2023-04-09T04:34:25.570Z,102134.63
2023-04-09T04:37:14.556Z,102143.56
2023-04-09T04:39:42.571Z,102149.47
2023-04-09T04:42:14.930Z,102153.91
2023-04-09T04:44:48.208Z,102158.81
2023-04-09T04:48:01.739Z,102151.78
2023-04-09T04:51:00.470Z,102151.13
2023-04-09T04:53:52.916Z,102157.78
2023-04-09T04:57:12.769Z,102168.09
2023-04-09T05:00:14.769Z,102176.78
2023-04-09T05:02:46.424Z,102182.78
2023-04-09T05:05:35.829Z,102179.91
2023-04-09T05:08:27.484Z,102189.28
2023-04-09T05:10:56.996Z,102196.28
2023-04-09T05:13:32.148Z,102187.34
2023-04-09T05:16:03.824Z,102185.63
2023-04-09T05:18:36.077Z,102194.13
2023-04-09T05:21:04.098Z,102188.09
2023-04-09T05:23:36.994Z,102186.44
2023-04-09T05:26:05.489Z,102185.63
2023-04-09T05:28:47.448Z,102188.06
2023-04-09T05:31:20.603Z,102192.13
2023-04-09T05:34:03.246Z,102189.84
2023-04-09T05:36:47.427Z,102189.63
2023-04-09T05:39:16.004Z,102192.88
2023-04-09T05:41:46.485Z,102189.31
2023-04-09T05:44:22.147Z,102194.50
2023-04-09T05:46:53.725Z,102187.22
2023-04-09T05:49:26.274Z,102183.81
2023-04-09T05:51:56.196Z,102182.09
2023-04-09T05:54:28.188Z,102183.72
2023-04-09T05:56:56.157Z,102184.59
2023-04-09T05:59:24.124Z,102184.09
2023-04-09T06:01:53.473Z,102183.63
2023-04-09T06:04:21.653Z,102177.03
2023-04-09T06:06:49.714Z,102181.91
2023-04-09T06:09:17.562Z,102175.03
2023-04-09T06:11:45.737Z,102181.63
2023-04-09T06:14:16.430Z,102179.81
2023-04-09T06:16:44.567Z,102187.91
2023-04-09T06:19:16.699Z,102187.53
2023-04-09T06:21:44.697Z,102182.47
2023-04-09T06:24:12.711Z,102185.03
2023-04-09T06:26:40.888Z,102186.75
2023-04-09T06:29:08.765Z,102184.84
2023-04-09T06:31:36.776Z,102181.94
2023-04-09T06:34:04.803Z,102181.09
2023-04-09T06:36:34.598Z,102185.59
2023-04-09T06:39:02.948Z,102177.34
2023-04-09T06:41:30.992Z,102172.84
2023-04-09T06:43:59.552Z,102171.81
2023-04-09T06:46:27.674Z,102169.69
2023-04-09T06:48:55.623Z,102172.69
2023-04-09T06:51:23.765Z,102181.31
2023-04-09T06:53:53.257Z,102172.06
2023-04-09T06:56:21.295Z,102180.19
2023-04-09T06:58:49.151Z,102182.47
2023-04-09T07:01:18.130Z,102185.94
2023-04-09T07:03:46.128Z,102181.56
2023-04-09T07:06:14.110Z,102187.00
2023-04-09T07:08:42.126Z,102191.31
2023-04-09T07:11:11.571Z,102191.09
2023-04-09T07:13:39.462Z,102192.47
2023-04-09T07:16:07.508Z,102192.34
2023-04-09T07:18:35.640Z,102197.72
2023-04-09T07:21:04.323Z,102198.50
2023-04-09T07:23:36.109Z,102198.28
2023-04-09T07:26:04.919Z,102196.38
2023-04-09T07:28:34.676Z,102193.75
2023-04-09T07:31:03.819Z,102192.91
2023-04-09T07:33:32.022Z,102197.47
2023-04-09T07:36:00.003Z,102184.22
2023-04-09T07:38:29.775Z,102191.88
2023-04-09T07:40:58.408Z,102192.09
2023-04-09T07:43:26.318Z,102193.34
2023-04-09T07:45:55.841Z,102194.72
2023-04-09T07:48:23.777Z,102194.47
2023-04-09T07:50:51.770Z,102195.34
2023-04-09T07:53:21.992Z,102190.88
2023-04-09T07:55:52.334Z,102191.03
2023-04-09T07:58:20.260Z,102193.03
2023-04-09T08:00:49.461Z,102186.91
2023-04-09T08:03:19.505Z,102202.63
2023-04-09T08:05:47.824Z,102194.94
2023-04-09T08:08:15.730Z,102199.19
2023-04-09T08:10:43.720Z,102196.88
2023-04-09T08:13:12.131Z,102203.53
2023-04-09T08:15:40.072Z,102204.50
2023-04-09T08:18:08.233Z,102213.16
2023-04-09T08:20:37.820Z,102218.72
2023-04-09T08:23:05.731Z,102220.38
2023-04-09T08:25:33.654Z,102214.25
2023-04-09T08:28:01.527Z,102221.63
2023-04-09T08:30:29.541Z,102220.72
2023-04-09T08:32:57.530Z,102219.41
2023-04-09T08:35:25.532Z,102223.97
2023-04-09T08:37:54.912Z,102224.63
2023-04-09T08:40:23.217Z,102214.53
2023-04-09T08:42:55.829Z,102213.31
2023-04-09T08:45:24.067Z,102217.16
2023-04-09T08:47:53.012Z,102218.00
2023-04-09T08:50:21.209Z,102204.53
2023-04-09T08:52:50.017Z,102206.94
2023-04-09T08:55:19.459Z,102210.91
2023-04-09T08:57:47.359Z,102207.31
2023-04-09T09:00:15.518Z,102211.25
2023-04-09T09:03:05.364Z,102202.91
2023-04-09T09:05:37.511Z,102199.53
2023-04-09T09:08:05.717Z,102211.69
2023-04-09T09:10:40.670Z,102200.97
2023-04-09T09:13:19.318Z,102207.03
2023-04-09T09:15:49.864Z,102202.13
2023-04-09T09:18:19.428Z,102208.88
2023-04-09T09:20:47.496Z,102212.91
2023-04-09T09:23:15.400Z,102212.81
2023-04-09T09:25:44.663Z,102199.16
2023-04-09T09:28:13.746Z,102203.66
2023-04-09T09:30:41.809Z,102205.38
2023-04-09T09:33:11.597Z,102203.00
2023-04-09T09:35:50.311Z,102205.06
2023-04-09T09:38:18.474Z,102201.25
2023-04-09T09:40:48.321Z,102203.78
2023-04-09T09:43:16.487Z,102201.28
2023-04-09T09:45:47.722Z,102198.72
2023-04-09T09:48:16.315Z,102192.09
2023-04-09T09:50:47.610Z,102192.63
2023-04-09T09:53:18.536Z,102190.34
2023-04-09T09:55:53.865Z,102195.84
2023-04-09T09:58:26.031Z,102188.69
2023-04-09T10:00:54.143Z,102186.09
2023-04-09T10:03:24.261Z,102176.75
2023-04-09T10:05:53.396Z,102174.88
2023-04-09T10:08:23.368Z,102184.88
2023-04-09T10:10:53.338Z,102170.47
2023-04-09T10:13:37.868Z,102182.13
2023-04-09T10:16:07.175Z,102173.19
2023-04-09T10:18:35.464Z,102178.53
2023-04-09T10:21:10.826Z,102185.19
2023-04-09T10:23:40.636Z,102188.25
2023-04-09T10:26:10.257Z,102191.63
2023-04-09T10:28:39.076Z,102181.78
2023-04-09T10:31:08.655Z,102181.25
2023-04-09T10:33:38.212Z,102180.75
2023-04-09T10:36:10.797Z,102183.78
2023-04-09T10:38:40.866Z,102179.88
2023-04-09T10:41:17.020Z,102188.63
2023-04-09T10:43:48.167Z,102184.44
2023-04-09T10:46:30.122Z,102180.31
2023-04-09T10:49:13.945Z,102189.00
2023-04-09T10:51:42.500Z,102184.34
2023-04-09T10:54:43.642Z,102174.47
2023-04-09T10:57:19.098Z,102184.13
2023-04-09T10:59:57.862Z,102184.78
2023-04-09T11:03:14.441Z,102190.31
2023-04-09T11:05:50.550Z,102168.06
2023-04-09T11:08:18.445Z,102175.25
2023-04-09T11:10:49.775Z,102174.88
2023-04-09T11:13:22.803Z,102174.84
2023-04-09T11:15:52.032Z,102178.56
2023-04-09T11:18:24.780Z,102170.41
2023-04-09T11:20:57.977Z,102176.94
2023-04-09T11:23:27.970Z,102178.91
2023-04-09T11:25:58.895Z,102170.06
2023-04-09T11:28:32.586Z,102168.06
2023-04-09T11:31:02.500Z,102166.91
2023-04-09T11:33:34.265Z,102160.19
2023-04-09T11:36:07.807Z,102158.84
2023-04-09T11:38:42.022Z,102160.31
2023-04-09T11:41:12.904Z,102155.97
2023-04-09T11:43:42.257Z,102153.34
2023-04-09T11:46:10.253Z,102154.47
2023-04-09T11:48:38.340Z,102152.53
2023-04-09T11:51:07.700Z,102143.81
2023-04-09T11:53:38.386Z,102150.34
2023-04-09T11:56:09.125Z,102149.63
2023-04-09T11:58:37.994Z,102148.19
2023-04-09T12:01:09.835Z,102153.66
2023-04-09T12:03:38.479Z,102146.78
2023-04-09T12:06:07.485Z,102144.75
2023-04-09T12:08:37.924Z,102146.91
2023-04-09T12:11:10.394Z,102147.81
2023-04-09T12:13:42.806Z,102149.13
2023-04-09T12:16:12.355Z,102147.81
2023-04-09T12:18:40.611Z,102147.66
2023-04-09T12:21:08.710Z,102148.88
2023-04-09T12:23:36.728Z,102153.00
2023-04-09T12:26:05.050Z,102144.44
2023-04-09T12:28:33.040Z,102146.97
2023-04-09T12:31:02.673Z,102149.28
2023-04-09T12:33:33.918Z,102143.25
2023-04-09T12:36:01.841Z,102149.31
2023-04-09T12:38:32.412Z,102142.84
2023-04-09T12:41:03.146Z,102140.63
2023-04-09T12:43:31.224Z,102130.97
2023-04-09T12:45:59.165Z,102137.38
2023-04-09T12:48:27.636Z,102133.13
2023-04-09T12:50:56.966Z,102125.56
2023-04-09T12:53:24.923Z,102116.06
2023-04-09T12:55:55.512Z,102124.34
2023-04-09T12:58:23.793Z,102125.84
2023-04-09T13:00:56.869Z,102118.75
2023-04-09T13:03:27.109Z,102119.59
2023-04-09T13:05:56.510Z,102121.63
2023-04-09T13:08:24.415Z,102112.91
2023-04-09T13:10:55.025Z,102108.16
2023-04-09T13:13:22.954Z,102114.91
2023-04-09T13:15:50.963Z,102106.88
2023-04-09T13:18:18.852Z,102106.78
2023-04-09T13:20:49.294Z,102112.31
2023-04-09T13:23:18.557Z,102097.88
2023-04-09T13:25:46.435Z,102099.53
2023-04-09T13:28:14.309Z,102096.41
2023-04-09T13:30:42.443Z,102088.00
2023-04-09T13:33:10.446Z,102092.78
2023-04-09T13:35:39.818Z,102091.19
2023-04-09T13:38:07.774Z,102093.69
2023-04-09T13:40:37.195Z,102091.66
2023-04-09T13:43:05.458Z,102087.78
2023-04-09T13:45:33.361Z,102080.16
2023-04-09T13:48:01.641Z,102080.94
2023-04-09T13:50:30.385Z,102078.91
2023-04-09T13:52:58.346Z,102075.81
2023-04-09T13:55:26.303Z,102077.31
2023-04-09T13:57:57.650Z,102067.28
2023-04-09T14:00:25.642Z,102069.03
2023-04-09T14:02:56.634Z,102066.16
2023-04-09T14:05:27.451Z,102064.06
2023-04-09T14:07:55.326Z,102063.22
2023-04-09T14:10:23.382Z,102054.25
2023-04-09T14:12:52.676Z,102054.97
2023-04-09T14:15:24.816Z,102052.94
2023-04-09T14:17:52.825Z,102054.22
2023-04-09T14:20:21.234Z,102049.19
2023-04-09T14:22:49.463Z,102057.13
2023-04-09T14:25:18.480Z,102050.00
2023-04-09T14:27:46.876Z,102047.50
2023-04-09T14:30:14.754Z,102043.22
2023-04-09T14:32:44.689Z,102041.22
2023-04-09T14:35:12.657Z,102038.03
2023-04-09T14:37:40.969Z,102039.56
2023-04-09T14:40:09.856Z,102036.09
2023-04-09T14:42:39.652Z,102029.63
2023-04-09T14:45:11.197Z,102033.38
2023-04-09T14:47:39.186Z,102032.81
2023-04-09T14:50:12.855Z,102034.84
2023-04-09T14:52:45.809Z,102035.03
2023-04-09T14:55:13.745Z,102029.28
2023-04-09T14:57:41.941Z,102028.47
2023-04-09T15:00:14.150Z,102024.34
2023-04-09T15:02:44.557Z,102022.97
2023-04-09T15:05:17.032Z,102027.03
2023-04-09T15:07:45.358Z,102027.22
2023-04-09T15:10:20.289Z,102023.97
2023-04-09T15:12:48.286Z,102030.31
2023-04-09T15:15:16.225Z,102036.03
2023-04-09T15:17:44.186Z,102030.69
2023-04-09T15:20:16.925Z,102026.81
2023-04-09T15:22:44.861Z,102026.75
2023-04-09T15:25:14.993Z,102033.59
2023-04-09T15:27:46.456Z,102032.91
2023-04-09T15:30:14.365Z,102032.75
2023-04-09T15:32:42.342Z,102030.56
2023-04-09T15:35:10.509Z,102034.16
2023-04-09T15:37:42.469Z,102031.38
2023-04-09T15:40:11.144Z,102030.03
2023-04-09T15:42:41.455Z,102026.31
2023-04-09T15:45:12.343Z,102020.00
2023-04-09T15:47:43.731Z,102023.28
2023-04-09T15:50:14.435Z,102030.31
2023-04-09T15:52:46.745Z,102024.88
2023-04-09T15:55:14.741Z,102025.53
2023-04-09T15:57:46.659Z,102024.38
2023-04-09T16:00:15.509Z,102025.50
2023-04-09T16:02:44.924Z,102028.47
2023-04-09T16:05:12.832Z,102031.03
2023-04-09T16:07:40.728Z,102027.03
2023-04-09T16:10:14.635Z,102028.47
2023-04-09T16:12:44.987Z,102022.25
2023-04-09T16:15:13.070Z,102025.44
2023-04-09T16:17:43.087Z,102025.06
2023-04-09T16:20:12.878Z,102025.56
2023-04-09T16:22:42.098Z,102023.94
2023-04-09T16:25:13.779Z,102020.63
2023-04-09T16:27:41.766Z,102020.09
2023-04-09T16:30:17.269Z,102017.69
2023-04-09T16:32:45.288Z,102022.41
2023-04-09T16:35:18.565Z,102021.88
2023-04-09T16:37:47.357Z,102024.09
2023-04-09T16:40:20.292Z,102031.22
2023-04-09T16:42:48.436Z,102025.06
2023-04-09T16:45:16.734Z,102021.91
2023-04-09T16:47:47.973Z,102020.44
2023-04-09T16:50:17.936Z,102016.31
2023-04-09T16:52:46.075Z,102017.41
2023-04-09T16:55:14.275Z,102021.63
2023-04-09T16:57:43.811Z,102014.47
2023-04-09T17:00:12.930Z,102014.41
2023-04-09T17:02:41.061Z,102018.28
2023-04-09T17:05:10.080Z,102016.28
2023-04-09T17:07:38.114Z,102011.00
2023-04-09T17:10:07.407Z,102014.59
2023-04-09T17:12:35.761Z,102015.81
2023-04-09T17:15:07.630Z,102018.00
2023-04-09T17:17:35.819Z,102015.53
2023-04-09T17:20:04.656Z,102018.09
2023-04-09T17:22:32.971Z,102014.50
2023-04-09T17:25:01.182Z,102021.47
2023-04-09T17:27:29.203Z,102028.56
2023-04-09T17:29:57.576Z,102027.13
2023-04-09T17:32:27.640Z,102027.53
2023-04-09T17:34:56.067Z,102026.84
2023-04-09T17:37:24.270Z,102030.72
2023-04-09T17:39:52.277Z,102031.56
2023-04-09T17:42:22.007Z,102032.50
2023-04-09T17:44:50.474Z,102037.72
2023-04-09T17:47:18.785Z,102036.13
2023-04-09T17:49:50.225Z,102033.34
2023-04-09T17:52:18.228Z,102032.47
2023-04-09T17:54:46.656Z,102027.38
2023-04-09T17:57:15.496Z,102023.91
2023-04-09T17:59:44.331Z,102031.06
2023-04-09T18:02:12.749Z,102032.47
2023-04-09T18:04:43.001Z,102029.16
2023-04-09T18:07:12.517Z,102036.13
2023-04-09T18:09:42.913Z,102036.72
2023-04-09T18:12:11.237Z,102041.81
2023-04-09T18:14:39.474Z,102044.56
2023-04-09T18:17:07.380Z,102038.50
2023-04-09T18:19:35.346Z,102036.91
2023-04-09T18:22:05.248Z,102035.09
2023-04-09T18:24:35.028Z,102032.81
2023-04-09T18:27:03.262Z,102026.63
2023-04-09T18:29:34.524Z,102026.63
2023-04-09T18:32:03.544Z,102029.41
2023-04-09T18:34:31.458Z,102031.88
2023-04-09T18:36:59.597Z,102039.19
2023-04-09T18:39:27.528Z,102041.09
2023-04-09T18:41:57.038Z,102044.84
2023-04-09T18:44:24.920Z,102052.91
2023-04-09T18:46:52.885Z,102051.97
2023-04-09T18:49:21.022Z,102061.94
2023-04-09T18:51:51.857Z,102064.97
2023-04-09T18:54:19.840Z,102061.47
2023-04-09T18:56:50.603Z,102055.72
2023-04-09T18:59:20.128Z,102059.66
2023-04-09T19:01:48.201Z,102056.00
2023-04-09T19:04:16.482Z,102066.53
2023-04-09T19:06:46.198Z,102061.44
2023-04-09T19:09:14.336Z,102061.00
2023-04-09T19:11:42.305Z,102057.91
2023-04-09T19:14:10.536Z,102063.63
2023-04-09T19:16:40.069Z,102059.19
2023-04-09T19:19:08.346Z,102061.00
2023-04-09T19:21:36.616Z,102069.13
2023-04-09T19:24:06.118Z,102068.56
2023-04-09T19:26:34.322Z,102074.22
2023-04-09T19:29:05.458Z,102070.69
2023-04-09T19:31:33.643Z,102073.69
2023-04-09T19:34:03.036Z,102066.41
2023-04-09T19:36:33.839Z,102066.03
2023-04-09T19:39:01.873Z,102064.06
2023-04-09T19:41:30.059Z,102069.47
2023-04-09T19:43:58.115Z,102071.22
2023-04-09T19:46:26.326Z,102072.44
2023-04-09T19:48:54.418Z,102073.16
2023-04-09T19:51:24.043Z,102066.44
2023-04-09T19:53:52.127Z,102068.06
2023-04-09T19:56:20.970Z,102066.09
2023-04-09T19:58:49.244Z,102068.22
2023-04-09T20:01:17.801Z,102069.00
2023-04-09T20:03:46.936Z,102067.44
2023-04-09T20:06:15.015Z,102069.06
2023-04-09T20:08:44.549Z,102068.16
2023-04-09T20:11:17.441Z,102074.91
2023-04-09T20:13:47.408Z,102070.03
2023-04-09T20:16:15.538Z,102079.66
2023-04-09T20:18:43.614Z,102078.25
2023-04-09T20:21:14.097Z,102080.38
2023-04-09T20:23:42.200Z,102076.19
2023-04-09T20:26:14.325Z,102081.56
2023-04-09T20:28:42.349Z,102072.91
2023-04-09T20:31:10.438Z,102078.06
2023-04-09T20:33:38.488Z,102078.53
2023-04-09T20:36:15.578Z,102068.34
2023-04-09T20:38:44.162Z,102077.31
2023-04-09T20:41:13.607Z,102075.56
2023-04-09T20:43:41.618Z,102079.28
2023-04-09T20:46:09.631Z,102074.25
2023-04-09T20:48:37.747Z,102076.75
2023-04-09T20:51:10.692Z,102070.97
2023-04-09T20:53:38.940Z,102068.34
2023-04-09T20:56:09.001Z,102077.22
2023-04-09T20:58:38.855Z,102075.66
2023-04-09T21:01:09.762Z,102073.59
2023-04-09T21:03:39.256Z,102066.91
2023-04-09T21:06:08.199Z,102060.16
2023-04-09T21:08:36.377Z,102060.13
2023-04-09T21:11:04.503Z,102060.34
2023-04-09T21:13:40.536Z,102059.78
2023-04-09T21:16:20.376Z,102063.13
2023-04-09T21:18:48.859Z,102068.38
2023-04-09T21:21:16.949Z,102059.97
2023-04-09T21:23:45.000Z,102067.91
2023-04-09T21:26:13.745Z,102069.66
2023-04-09T21:28:41.793Z,102066.50
2023-04-09T21:31:10.998Z,102064.03
2023-04-09T21:33:40.584Z,102060.53
2023-04-09T21:36:09.015Z,102061.44
2023-04-09T21:38:37.092Z,102055.63
2023-04-09T21:41:05.438Z,102052.16
2023-04-09T21:43:34.661Z,102048.72
2023-04-09T21:46:03.011Z,102054.16
2023-04-09T21:48:31.643Z,102054.13
2023-04-09T21:51:01.173Z,102046.25
2023-04-09T21:53:31.952Z,102051.78
2023-04-09T21:55:59.906Z,102057.09
2023-04-09T21:58:28.025Z,102054.91
2023-04-09T22:00:56.132Z,102059.91
2023-04-09T22:03:24.392Z,102055.34
2023-04-09T22:05:52.682Z,102060.06
2023-04-09T22:08:22.037Z,102065.94
2023-04-09T22:10:50.161Z,102064.28
2023-04-09T22:13:18.264Z,102064.81
2023-04-09T22:15:46.262Z,102058.03
2023-04-09T22:18:14.205Z,102062.50
2023-04-09T22:20:42.391Z,102066.81
2023-04-09T22:23:10.895Z,102062.13
2023-04-09T22:25:40.341Z,102058.94
2023-04-09T22:28:08.396Z,102067.28
2023-04-09T22:30:36.393Z,102060.84
2023-04-09T22:33:04.500Z,102070.38
2023-04-09T22:35:33.283Z,102076.69
2023-04-09T22:38:01.445Z,102070.75
2023-04-09T22:40:32.700Z,102073.56
2023-04-09T22:43:01.953Z,102072.63
2023-04-09T22:45:32.088Z,102074.47
2023-04-09T22:48:29.002Z,102068.66
2023-04-09T22:51:26.122Z,102070.53
2023-04-09T22:58:38.537Z,102072.84
2023-04-09T23:01:58.200Z,102082.34
2023-04-09T23:09:46.103Z,102083.38
2023-04-09T23:18:22.264Z,102061.59
2023-04-09T23:24:57.617Z,102060.97
2023-04-09T23:26:31.117Z,102079.16
2023-04-09T23:36:27.841Z,102063.28
2023-04-09T23:38:55.757Z,102068.84
2023-04-09T23:41:23.922Z,102058.06
2023-04-09T23:43:54.511Z,102056.91
2023-04-09T23:46:22.664Z,102063.56
2023-04-09T23:48:50.640Z,102060.78
2023-04-09T23:51:21.780Z,102068.88
2023-04-09T23:53:51.232Z,102063.50
2023-04-09T23:56:19.347Z,102058.16
2023-04-09T23:58:47.218Z,102047.13
